Time;durP1;ratioP1;P1;durP2;ratioP2;P2;SDS_P1;SDS_P2;PMS_P1;PMS_P2;Temp;Humidity;BMP_temperature;BMP_pressure;BME280_temperature;BME280_humidity;BME280_pressure;Samples;Min_cycle;Max_cycle;Signal;HPM_P1;HPM_P2
2023/08/26 00:01:31;;;;;;;27.52;18.65;;;16.90;99.90;;;;;;4853548;29;20214;-63
2023/08/26 00:03:57;;;;;;;33.20;19.95;;;16.80;99.90;;;;;;4860673;29;20510;-65
2023/08/26 00:06:23;;;;;;;31.50;19.77;;;16.80;99.90;;;;;;4860980;29;20703;-61
2023/08/26 00:08:52;;;;;;;31.73;19.88;;;16.80;99.90;;;;;;4859376;29;20190;-62
2023/08/26 00:11:18;;;;;;;36.45;20.38;;;16.70;99.90;;;;;;4860345;29;20229;-63
2023/08/26 00:13:44;;;;;;;29.65;20.35;;;16.70;99.90;;;;;;4860685;29;20210;-62
2023/08/26 00:16:12;;;;;;;34.28;20.45;;;16.70;99.90;;;;;;4860048;29;20712;-62
2023/08/26 00:18:38;;;;;;;30.33;19.88;;;16.70;99.90;;;;;;4859898;29;20194;-67
2023/08/26 00:21:04;;;;;;;27.85;18.48;;;16.60;99.90;;;;;;4852017;29;20776;-63
2023/08/26 00:23:33;;;;;;;30.08;19.50;;;16.60;99.90;;;;;;4856482;29;20195;-67
2023/08/26 00:26:00;;;;;;;30.33;19.08;;;16.60;99.90;;;;;;4859904;29;20628;-63
2023/08/26 00:28:26;;;;;;;31.05;18.92;;;16.60;99.90;;;;;;4860749;29;20221;-62
2023/08/26 00:31:00;;;;;;;28.15;17.70;;;16.60;99.90;;;;;;4838343;29;20214;-62
2023/08/26 00:33:26;;;;;;;26.45;17.80;;;16.60;99.90;;;;;;4858253;29;20242;-63
2023/08/26 00:35:52;;;;;;;31.65;18.48;;;16.60;99.90;;;;;;4858533;29;20190;-63
2023/08/26 00:38:18;;;;;;;31.90;18.65;;;16.60;99.90;;;;;;4860815;29;20193;-66
2023/08/26 00:40:44;;;;;;;26.98;18.08;;;16.60;99.90;;;;;;4851402;29;20671;-64
2023/08/26 00:43:10;;;;;;;24.40;17.08;;;16.60;99.90;;;;;;4856702;29;20193;-66
2023/08/26 00:45:44;;;;;;;25.83;16.30;;;16.60;99.90;;;;;;4857136;29;20256;-62
2023/08/26 00:48:12;;;;;;;27.48;16.40;;;16.60;99.90;;;;;;4856669;29;20241;-62
2023/08/26 00:50:40;;;;;;;23.67;16.48;;;16.60;99.90;;;;;;4859379;29;20213;-63
2023/08/26 00:53:08;;;;;;;24.75;16.80;;;16.60;99.90;;;;;;4859136;29;20186;-64
2023/08/26 00:55:36;;;;;;;28.27;17.13;;;16.50;99.90;;;;;;4858629;29;20221;-64
2023/08/26 00:58:02;;;;;;;23.85;16.33;;;16.50;99.90;;;;;;4859296;29;20269;-61
2023/08/26 01:00:29;;;;;;;22.02;15.90;;;16.50;99.90;;;;;;4853070;29;20201;-62
2023/08/26 01:02:55;;;;;;;26.70;16.35;;;16.40;99.90;;;;;;4851616;29;20204;-62
2023/08/26 01:05:22;;;;;;;23.92;15.70;;;16.40;99.90;;;;;;4856490;29;20257;-63
2023/08/26 01:07:49;;;;;;;24.88;15.40;;;16.40;99.90;;;;;;4856220;29;20196;-63
2023/08/26 01:10:15;;;;;;;24.63;15.15;;;16.30;99.90;;;;;;4843000;29;20197;-64
2023/08/26 01:13:01;;;;;;;23.80;14.77;;;16.30;99.90;;;;;;4860032;29;20635;-62
2023/08/26 01:15:29;;;;;;;24.23;15.45;;;16.30;99.90;;;;;;4842801;29;20250;-64
2023/08/26 01:17:56;;;;;;;24.27;13.93;;;16.20;99.90;;;;;;4859679;29;20667;-64
2023/08/26 01:20:24;;;;;;;22.17;14.30;;;16.20;99.90;;;;;;4854750;29;20286;-63
2023/08/26 01:22:51;;;;;;;22.52;14.15;;;16.20;99.90;;;;;;4857010;29;20189;-63
2023/08/26 01:25:17;;;;;;;22.30;14.05;;;16.20;99.90;;;;;;4870860;29;20774;-65
2023/08/26 01:27:43;;;;;;;25.30;13.55;;;16.20;99.90;;;;;;4874552;29;20264;-64
2023/08/26 01:30:12;;;;;;;19.40;13.32;;;16.20;99.90;;;;;;4855625;29;20280;-64
2023/08/26 01:32:42;;;;;;;18.42;13.50;;;16.20;99.90;;;;;;4851476;29;20193;-62
2023/08/26 01:35:17;;;;;;;21.15;13.63;;;16.20;99.90;;;;;;4855275;29;20698;-63
2023/08/26 01:37:45;;;;;;;24.95;14.50;;;16.10;99.90;;;;;;4859097;29;20222;-64
2023/08/26 01:40:12;;;;;;;22.35;13.30;;;16.10;99.90;;;;;;4855242;29;20205;-63
2023/08/26 01:42:42;;;;;;;26.83;13.70;;;16.10;99.90;;;;;;4857296;29;20200;-64
2023/08/26 01:45:09;;;;;;;23.10;13.65;;;16.20;99.90;;;;;;4859635;29;20296;-63
2023/08/26 01:47:34;;;;;;;21.98;13.95;;;16.10;99.90;;;;;;4858148;29;20198;-62
2023/08/26 01:50:00;;;;;;;21.05;14.13;;;16.10;99.90;;;;;;4858148;29;20324;-63
2023/08/26 01:52:26;;;;;;;21.70;15.00;;;16.00;99.90;;;;;;4841469;29;20194;-63
2023/08/26 01:54:52;;;;;;;25.65;14.57;;;16.00;99.90;;;;;;4853562;29;20213;-63
2023/08/26 01:57:18;;;;;;;20.95;14.50;;;16.00;99.90;;;;;;4867825;29;20654;-63
2023/08/26 01:59:45;;;;;;;25.75;14.85;;;16.00;99.90;;;;;;4862694;29;20223;-63
2023/08/26 02:02:12;;;;;;;23.83;15.48;;;15.90;99.90;;;;;;4856600;29;20201;-68
2023/08/26 02:04:38;;;;;;;25.10;15.50;;;15.90;99.90;;;;;;4853995;29;20190;-68
2023/08/26 02:07:04;;;;;;;24.05;15.45;;;15.90;99.90;;;;;;4856379;29;20189;-63
2023/08/26 02:09:30;;;;;;;24.70;14.85;;;15.90;99.90;;;;;;4855256;29;20187;-67
2023/08/26 02:11:56;;;;;;;20.25;14.00;;;15.80;99.90;;;;;;4868403;29;20198;-64
2023/08/26 02:14:22;;;;;;;25.40;14.50;;;15.80;99.90;;;;;;4867543;29;20194;-64
2023/08/26 02:16:49;;;;;;;21.42;15.15;;;15.80;99.90;;;;;;4873246;29;20257;-63
2023/08/26 02:19:15;;;;;;;20.75;14.10;;;15.70;99.90;;;;;;4858290;29;20202;-65
2023/08/26 02:21:41;;;;;;;21.10;13.57;;;15.70;99.90;;;;;;4836330;29;20262;-65
2023/08/26 02:24:07;;;;;;;19.63;13.77;;;15.70;99.90;;;;;;4857997;29;20292;-65
2023/08/26 02:26:36;;;;;;;20.52;13.35;;;15.60;99.90;;;;;;4856008;29;20222;-64
2023/08/26 02:29:03;;;;;;;19.67;13.77;;;15.60;99.90;;;;;;4872481;29;20209;-64
2023/08/26 02:31:29;;;;;;;20.88;14.23;;;15.60;99.90;;;;;;4854538;29;20286;-67
2023/08/26 02:33:55;;;;;;;26.15;13.93;;;15.60;99.90;;;;;;4873175;29;20289;-67
2023/08/26 02:36:20;;;;;;;24.75;13.85;;;15.60;99.90;;;;;;4853359;29;21974;-66
2023/08/26 02:38:47;;;;;;;22.70;14.00;;;15.50;99.90;;;;;;4857320;29;20664;-66
2023/08/26 02:41:13;;;;;;;22.65;14.55;;;15.50;99.90;;;;;;4847281;29;20228;-65
2023/08/26 02:43:39;;;;;;;22.27;14.63;;;15.50;99.90;;;;;;4862929;29;20277;-68
2023/08/26 02:46:05;;;;;;;29.30;15.35;;;15.50;99.90;;;;;;4856120;29;20227;-68
2023/08/26 02:48:31;;;;;;;24.67;14.90;;;15.40;99.90;;;;;;4855405;29;20233;-72
2023/08/26 02:50:58;;;;;;;28.50;15.30;;;15.40;99.90;;;;;;4845375;29;20197;-66
2023/08/26 02:53:26;;;;;;;32.75;15.68;;;15.30;99.90;;;;;;4861266;29;20546;-68
2023/08/26 02:55:53;;;;;;;25.70;15.07;;;15.40;99.90;;;;;;4858758;29;20296;-68
2023/08/26 02:58:20;;;;;;;22.67;14.80;;;15.30;99.90;;;;;;4861450;29;20194;-66
2023/08/26 03:00:47;;;;;;;24.13;14.48;;;15.30;99.90;;;;;;4857247;29;20655;-71
2023/08/26 03:03:14;;;;;;;24.17;14.10;;;15.30;99.90;;;;;;4874288;29;20334;-66
2023/08/26 03:05:41;;;;;;;24.58;13.02;;;15.20;99.90;;;;;;4836744;29;20250;-67
2023/08/26 03:08:07;;;;;;;23.38;13.40;;;15.20;99.90;;;;;;4862896;29;20596;-66
2023/08/26 03:10:34;;;;;;;20.58;12.40;;;15.20;99.90;;;;;;4858665;29;20751;-67
2023/08/26 03:13:00;;;;;;;20.35;11.50;;;15.20;99.90;;;;;;4861335;29;20217;-65
2023/08/26 03:15:29;;;;;;;16.23;11.02;;;15.10;99.90;;;;;;4856072;29;20221;-66
2023/08/26 03:17:56;;;;;;;17.08;10.68;;;15.10;99.90;;;;;;4859592;29;20186;-66
2023/08/26 03:20:23;;;;;;;16.65;9.85;;;15.10;99.90;;;;;;4858163;29;20675;-66
2023/08/26 03:22:50;;;;;;;14.15;9.52;;;15.00;99.90;;;;;;4861323;29;20182;-68
2023/08/26 03:25:16;;;;;;;13.68;8.63;;;15.00;99.90;;;;;;4859100;29;20229;-66
2023/08/26 03:27:43;;;;;;;12.98;7.78;;;15.00;99.90;;;;;;4861833;29;20190;-66
2023/08/26 03:30:09;;;;;;;14.45;8.57;;;15.00;99.90;;;;;;4854755;29;20224;-66
2023/08/26 03:32:36;;;;;;;16.08;8.25;;;15.00;99.90;;;;;;4868802;29;20198;-65
2023/08/26 03:35:02;;;;;;;15.27;9.00;;;15.00;99.90;;;;;;4874683;29;20197;-66
2023/08/26 03:37:31;;;;;;;13.25;8.10;;;15.00;99.90;;;;;;4868857;29;20201;-66
2023/08/26 03:39:58;;;;;;;18.92;9.25;;;14.90;99.90;;;;;;4861503;29;20655;-65
2023/08/26 03:42:24;;;;;;;14.88;10.00;;;15.00;99.90;;;;;;4860123;29;20198;-65
2023/08/26 03:44:52;;;;;;;13.02;9.45;;;14.90;99.90;;;;;;4855034;29;20230;-65
2023/08/26 03:47:18;;;;;;;16.88;10.23;;;14.90;99.90;;;;;;4857451;29;20287;-66
2023/08/26 03:49:44;;;;;;;13.38;10.07;;;14.90;99.90;;;;;;4857893;29;20614;-66
2023/08/26 03:52:10;;;;;;;13.90;9.50;;;14.90;99.90;;;;;;4857018;29;20194;-66
2023/08/26 03:54:36;;;;;;;16.20;10.00;;;14.90;99.90;;;;;;4872452;29;20244;-65
2023/08/26 03:57:02;;;;;;;14.32;9.50;;;14.80;99.90;;;;;;4857674;29;20206;-65
2023/08/26 03:59:28;;;;;;;14.05;9.40;;;14.80;99.90;;;;;;4857597;29;20674;-66
2023/08/26 04:01:54;;;;;;;16.63;9.45;;;14.80;99.90;;;;;;4875074;29;20197;-66
2023/08/26 04:04:20;;;;;;;16.58;9.35;;;14.80;99.90;;;;;;4875153;29;20250;-67
2023/08/26 04:06:46;;;;;;;16.25;9.18;;;14.80;99.90;;;;;;4858447;29;20222;-67
2023/08/26 04:09:12;;;;;;;16.80;10.07;;;14.80;99.90;;;;;;4871074;29;20204;-68
2023/08/26 04:11:38;;;;;;;18.08;9.90;;;14.90;99.90;;;;;;4859531;29;20198;-68
2023/08/26 04:14:04;;;;;;;15.77;10.52;;;14.90;99.90;;;;;;4859897;29;20213;-66
2023/08/26 04:16:30;;;;;;;14.05;10.00;;;14.90;99.90;;;;;;4859190;29;20940;-66
2023/08/26 04:18:57;;;;;;;13.77;8.75;;;15.00;99.90;;;;;;4870307;29;20194;-66
2023/08/26 04:21:23;;;;;;;17.42;9.05;;;15.00;99.90;;;;;;4859000;29;20276;-65
2023/08/26 04:23:49;;;;;;;12.10;8.18;;;15.00;99.90;;;;;;4874910;29;20221;-67
2023/08/26 04:26:15;;;;;;;13.75;8.40;;;15.10;99.90;;;;;;4858849;29;20281;-67
2023/08/26 04:28:41;;;;;;;14.70;8.55;;;15.20;99.90;;;;;;4874232;29;20194;-66
2023/08/26 04:31:07;;;;;;;12.63;7.80;;;15.20;99.90;;;;;;4860860;29;20213;-65
2023/08/26 04:33:34;;;;;;;13.50;7.47;;;15.20;99.90;;;;;;4858854;29;20619;-65
2023/08/26 04:36:00;;;;;;;10.57;6.57;;;15.30;99.90;;;;;;4859595;29;20190;-65
2023/08/26 04:38:26;;;;;;;15.07;7.45;;;15.30;99.90;;;;;;4855486;29;20221;-64
2023/08/26 04:40:52;;;;;;;12.30;7.45;;;15.30;99.90;;;;;;4874407;29;20193;-65
2023/08/26 04:43:18;;;;;;;9.80;6.93;;;15.40;99.90;;;;;;4858354;29;20198;-65
2023/08/26 04:45:43;;;;;;;13.85;7.38;;;15.40;99.90;;;;;;4859126;29;20229;-66
2023/08/26 04:48:09;;;;;;;12.02;6.60;;;15.50;99.90;;;;;;4859639;29;20194;-65
2023/08/26 04:50:36;;;;;;;10.32;6.45;;;15.50;99.90;;;;;;4854540;29;20186;-65
2023/08/26 04:53:02;;;;;;;13.98;6.63;;;15.50;99.90;;;;;;4858571;29;20208;-64
2023/08/26 04:55:31;;;;;;;8.90;6.07;;;15.60;99.90;;;;;;4861096;29;20198;-64
2023/08/26 04:57:57;;;;;;;10.27;6.68;;;15.60;99.90;;;;;;4859009;29;20194;-66
2023/08/26 05:00:25;;;;;;;11.13;6.13;;;15.60;99.90;;;;;;4858791;29;20186;-67
2023/08/26 05:02:52;;;;;;;11.60;6.88;;;15.70;99.90;;;;;;4855479;29;20194;-65
2023/08/26 05:05:19;;;;;;;7.32;6.00;;;15.70;99.90;;;;;;4857134;29;20234;-67
2023/08/26 05:07:45;;;;;;;9.90;6.32;;;15.70;99.90;;;;;;4855624;29;20277;-66
2023/08/26 05:10:13;;;;;;;10.00;6.40;;;15.80;99.90;;;;;;4868066;29;20209;-66
2023/08/26 05:12:39;;;;;;;8.85;6.10;;;15.80;99.90;;;;;;4873341;29;20258;-67
2023/08/26 05:15:05;;;;;;;9.07;6.13;;;15.90;99.90;;;;;;4860010;29;20643;-66
2023/08/26 05:17:31;;;;;;;8.98;6.15;;;15.90;99.90;;;;;;4855576;29;20221;-66
2023/08/26 05:19:57;;;;;;;8.20;6.03;;;15.90;99.90;;;;;;4859433;29;20214;-71
2023/08/26 05:22:23;;;;;;;10.38;5.80;;;16.00;99.90;;;;;;4855435;29;20786;-68
2023/08/26 05:24:49;;;;;;;8.55;5.75;;;16.00;99.90;;;;;;4855015;29;20230;-65
2023/08/26 05:27:17;;;;;;;11.55;5.93;;;16.00;99.90;;;;;;4843105;29;20198;-65
2023/08/26 05:29:43;;;;;;;12.82;6.30;;;16.10;99.90;;;;;;4859473;29;20666;-67
2023/08/26 05:32:09;;;;;;;11.93;6.63;;;16.10;99.90;;;;;;4858033;29;20352;-66
2023/08/26 05:34:36;;;;;;;11.05;6.25;;;16.10;99.90;;;;;;4857743;29;21073;-70
2023/08/26 05:37:01;;;;;;;11.82;7.03;;;16.20;99.90;;;;;;4841574;29;20214;-69
2023/08/26 05:39:28;;;;;;;15.85;7.40;;;16.20;99.90;;;;;;4851154;29;20218;-64
2023/08/26 05:41:54;;;;;;;13.50;7.68;;;16.30;99.90;;;;;;4852512;29;20258;-65
2023/08/26 05:44:20;;;;;;;10.93;7.68;;;16.30;99.90;;;;;;4854208;29;20293;-64
2023/08/26 05:46:46;;;;;;;14.73;7.72;;;16.30;99.90;;;;;;4858811;29;20214;-69
2023/08/26 05:49:12;;;;;;;12.13;7.90;;;16.30;99.90;;;;;;4854935;29;20195;-67
2023/08/26 05:51:38;;;;;;;13.73;8.02;;;16.40;99.90;;;;;;4857382;29;20643;-66
2023/08/26 05:54:05;;;;;;;14.10;8.15;;;16.40;99.90;;;;;;4856854;29;20251;-62
2023/08/26 05:56:32;;;;;;;9.98;7.70;;;16.40;99.90;;;;;;4855909;29;20198;-62
2023/08/26 05:58:59;;;;;;;11.93;6.50;;;16.40;99.90;;;;;;4851475;29;20642;-68
2023/08/26 06:01:25;;;;;;;12.80;6.88;;;16.40;99.90;;;;;;4842922;29;20573;-65
2023/08/26 06:03:51;;;;;;;11.55;6.93;;;16.40;99.90;;;;;;4872335;29;20194;-62
2023/08/26 06:06:17;;;;;;;12.73;7.35;;;16.40;99.90;;;;;;4858441;29;20214;-61
2023/08/26 06:08:42;;;;;;;14.02;6.80;;;16.40;99.90;;;;;;4858579;29;20659;-62
2023/08/26 06:11:08;;;;;;;10.20;6.55;;;16.40;99.90;;;;;;4872960;29;20251;-65
2023/08/26 06:13:35;;;;;;;10.93;6.38;;;16.40;99.90;;;;;;4858184;29;20269;-62
2023/08/26 06:16:02;;;;;;;8.23;6.30;;;16.50;99.90;;;;;;4855738;29;21642;-68
2023/08/26 06:18:28;;;;;;;10.65;6.30;;;16.50;99.90;;;;;;4872996;29;20177;-64
2023/08/26 06:20:54;;;;;;;10.15;6.32;;;16.50;99.90;;;;;;4876166;29;20237;-63
2023/08/26 06:23:21;;;;;;;8.25;6.20;;;16.50;99.90;;;;;;4846851;29;20196;-65
2023/08/26 06:25:53;;;;;;;12.05;6.38;;;16.50;99.90;;;;;;4861248;29;21069;-64
2023/08/26 06:28:21;;;;;;;9.35;6.15;;;16.50;99.90;;;;;;4861326;29;20300;-65
2023/08/26 06:30:47;;;;;;;8.88;5.22;;;16.50;99.90;;;;;;4861133;29;20197;-64
2023/08/26 06:33:14;;;;;;;9.18;5.25;;;16.50;99.90;;;;;;4842368;29;20294;-65
2023/08/26 06:35:40;;;;;;;8.07;5.40;;;16.40;99.90;;;;;;4856616;29;20281;-65
2023/08/26 06:38:07;;;;;;;13.07;5.22;;;16.40;99.90;;;;;;4845493;29;20541;-65
2023/08/26 06:40:34;;;;;;;9.73;4.75;;;16.50;99.90;;;;;;4862149;29;20194;-62
2023/08/26 06:43:04;;;;;;;9.02;4.80;;;16.50;99.90;;;;;;4859005;29;20234;-65
2023/08/26 06:45:34;;;;;;;7.28;4.85;;;16.40;99.90;;;;;;4858622;29;20225;-65
2023/08/26 06:48:02;;;;;;;9.18;4.70;;;16.50;99.90;;;;;;4860705;29;20647;-67
2023/08/26 06:50:28;;;;;;;5.25;4.53;;;16.50;99.90;;;;;;4876655;29;20674;-65
2023/08/26 06:52:55;;;;;;;6.72;4.78;;;16.50;99.90;;;;;;4864084;29;20209;-63
2023/08/26 06:55:20;;;;;;;6.55;4.78;;;16.50;99.90;;;;;;4860132;29;20190;-64
2023/08/26 06:57:46;;;;;;;8.05;4.22;;;16.40;99.90;;;;;;4846235;29;20221;-63
2023/08/26 07:00:13;;;;;;;7.03;4.95;;;16.40;99.90;;;;;;4863185;29;20217;-66
2023/08/26 07:02:39;;;;;;;7.13;4.70;;;16.40;99.90;;;;;;4857905;29;20186;-65
2023/08/26 07:05:06;;;;;;;6.50;4.72;;;16.40;99.90;;;;;;4858233;29;20537;-67
2023/08/26 07:07:31;;;;;;;7.97;4.28;;;16.50;99.90;;;;;;4858877;29;20310;-67
2023/08/26 07:09:57;;;;;;;8.70;4.45;;;16.50;99.90;;;;;;4855965;29;20217;-67
2023/08/26 07:12:23;;;;;;;10.93;4.53;;;16.50;99.90;;;;;;4859548;29;20651;-67
2023/08/26 07:14:49;;;;;;;8.18;4.63;;;16.60;99.90;;;;;;4858299;29;20205;-67
2023/08/26 07:17:17;;;;;;;6.78;4.60;;;16.70;99.90;;;;;;4855770;29;20194;-68
2023/08/26 07:19:43;;;;;;;7.45;4.30;;;16.70;99.90;;;;;;4860576;29;20342;-69
2023/08/26 07:22:09;;;;;;;6.03;4.50;;;16.80;99.90;;;;;;4860787;29;20316;-68
2023/08/26 07:24:35;;;;;;;5.68;4.78;;;16.80;99.90;;;;;;4857114;29;20346;-70
2023/08/26 07:27:01;;;;;;;9.68;5.03;;;16.90;99.90;;;;;;4856078;29;20297;-68
2023/08/26 07:29:27;;;;;;;9.48;4.80;;;17.00;99.90;;;;;;4856662;29;20406;-68
2023/08/26 07:31:53;;;;;;;8.50;5.13;;;17.10;99.90;;;;;;4860970;29;20194;-70
2023/08/26 07:34:19;;;;;;;7.32;4.82;;;17.20;99.90;;;;;;4859526;29;20289;-69
2023/08/26 07:36:44;;;;;;;7.88;5.57;;;17.30;99.90;;;;;;4856139;29;20314;-68
2023/08/26 07:39:10;;;;;;;8.68;6.15;;;17.30;99.90;;;;;;4855017;29;20584;-70
2023/08/26 07:41:36;;;;;;;10.63;7.05;;;17.40;99.90;;;;;;4855731;29;20190;-69
2023/08/26 07:44:03;;;;;;;12.55;9.38;;;17.40;99.90;;;;;;4860532;29;20197;-69
2023/08/26 07:46:28;;;;;;;12.93;10.15;;;17.40;99.90;;;;;;4856743;29;20222;-69
2023/08/26 07:48:54;;;;;;;16.00;10.85;;;17.40;99.90;;;;;;4857325;29;20200;-69
2023/08/26 07:51:20;;;;;;;18.92;13.25;;;17.40;99.90;;;;;;4861039;29;20483;-71
2023/08/26 07:53:46;;;;;;;18.23;13.50;;;17.50;99.90;;;;;;4861124;29;20186;-69
2023/08/26 07:56:12;;;;;;;21.33;14.30;;;17.50;99.90;;;;;;4856679;29;20667;-69
2023/08/26 07:58:38;;;;;;;25.75;15.75;;;17.60;99.90;;;;;;4857896;29;20182;-69
2023/08/26 08:01:05;;;;;;;22.92;16.75;;;17.70;99.90;;;;;;4859203;29;20213;-70
2023/08/26 08:03:30;;;;;;;23.23;17.17;;;17.80;99.90;;;;;;4845062;29;20186;-70
2023/08/26 08:05:56;;;;;;;23.83;17.63;;;17.90;99.90;;;;;;4858865;29;20217;-69
2023/08/26 08:08:24;;;;;;;23.52;17.85;;;18.00;99.90;;;;;;4856532;29;20198;-70
2023/08/26 08:10:50;;;;;;;25.10;17.27;;;18.10;99.90;;;;;;4856982;29;20194;-70
2023/08/26 08:13:16;;;;;;;26.55;18.40;;;18.20;99.90;;;;;;4870532;29;20201;-70
2023/08/26 08:15:42;;;;;;;28.05;18.13;;;18.20;99.90;;;;;;4855622;29;20558;-70
2023/08/26 08:18:08;;;;;;;28.73;19.20;;;18.30;99.90;;;;;;4859104;29;20231;-72
2023/08/26 08:20:34;;;;;;;28.02;19.77;;;18.40;99.90;;;;;;4859416;29;20190;-73
2023/08/26 08:23:00;;;;;;;34.65;19.73;;;18.40;99.90;;;;;;4858091;29;20236;-68
2023/08/26 08:25:26;;;;;;;26.40;18.95;;;18.40;99.90;;;;;;4857296;29;20221;-67
2023/08/26 08:27:53;;;;;;;27.30;19.88;;;18.40;99.90;;;;;;4859948;29;20205;-66
2023/08/26 08:30:19;;;;;;;26.25;19.95;;;18.40;99.90;;;;;;4859240;29;20193;-70
2023/08/26 08:32:45;;;;;;;26.10;20.17;;;18.30;99.90;;;;;;4856130;29;20587;-69
2023/08/26 08:35:11;;;;;;;28.52;19.60;;;18.30;99.90;;;;;;4857544;29;20198;-72
2023/08/26 08:37:37;;;;;;;26.05;19.45;;;18.30;99.90;;;;;;4860015;29;20246;-69
2023/08/26 08:40:05;;;;;;;24.83;18.45;;;18.30;99.90;;;;;;4862386;29;20359;-70
2023/08/26 08:42:34;;;;;;;22.30;17.90;;;18.30;99.90;;;;;;4878916;29;20222;-70
2023/08/26 08:45:03;;;;;;;26.98;18.75;;;18.40;99.90;;;;;;4858688;29;20214;-70
2023/08/26 08:47:30;;;;;;;22.52;17.85;;;18.50;99.90;;;;;;4854615;29;20233;-69
2023/08/26 08:49:57;;;;;;;28.50;18.20;;;18.50;99.90;;;;;;4857015;29;20232;-70
2023/08/26 08:52:26;;;;;;;24.65;17.25;;;18.60;99.90;;;;;;4856486;29;20202;-70
2023/08/26 08:54:52;;;;;;;23.08;16.52;;;18.70;99.90;;;;;;4859237;29;20685;-70
2023/08/26 08:57:26;;;;;;;24.73;16.45;;;18.70;99.90;;;;;;4864747;29;20233;-69
2023/08/26 08:59:54;;;;;;;21.52;15.48;;;18.70;99.90;;;;;;4874483;29;20257;-70
2023/08/26 09:02:20;;;;;;;20.55;14.50;;;18.80;99.90;;;;;;4858829;29;20205;-70
2023/08/26 09:04:47;;;;;;;27.10;15.13;;;18.80;99.90;;;;;;4859461;29;20246;-70
2023/08/26 09:07:15;;;;;;;19.83;14.30;;;18.90;99.90;;;;;;4855024;29;20182;-71
2023/08/26 09:09:41;;;;;;;22.15;15.07;;;19.00;99.90;;;;;;4852925;29;20237;-69
2023/08/26 09:12:07;;;;;;;21.73;14.23;;;19.00;99.90;;;;;;4854589;29;20661;-69
2023/08/26 09:14:33;;;;;;;19.13;13.50;;;19.10;99.90;;;;;;4842954;29;20205;-70
2023/08/26 09:17:15;;;;;;;19.75;13.23;;;19.10;99.90;;;;;;4852766;29;20194;-70
2023/08/26 09:19:58;;;;;;;16.33;12.80;;;19.20;99.90;;;;;;4857004;29;20537;-71
2023/08/26 09:22:26;;;;;;;18.67;13.02;;;19.30;99.90;;;;;;4856718;29;20235;-69
2023/08/26 09:25:00;;;;;;;16.15;11.25;;;19.40;99.90;;;;;;4856836;29;20505;-71
2023/08/26 09:27:26;;;;;;;15.07;11.30;;;19.50;99.90;;;;;;4853668;29;20197;-71
2023/08/26 09:29:53;;;;;;;15.52;11.43;;;19.60;99.90;;;;;;4854277;29;20524;-70
2023/08/26 09:32:35;;;;;;;15.50;11.48;;;19.70;99.90;;;;;;4857325;29;20190;-70
2023/08/26 09:35:13;;;;;;;16.80;10.88;;;19.80;99.90;;;;;;4854415;29;20197;-70
2023/08/26 09:37:45;;;;;;;13.65;10.63;;;20.00;99.90;;;;;;4859094;29;20630;-70
2023/08/26 09:40:16;;;;;;;14.85;10.25;;;20.20;99.90;;;;;;4858325;29;20272;-71
2023/08/26 09:42:42;;;;;;;15.65;9.68;;;20.40;99.90;;;;;;4859375;29;20296;-72
2023/08/26 09:45:10;;;;;;;15.57;9.35;;;20.60;99.90;;;;;;4839311;29;20300;-69
2023/08/26 09:47:37;;;;;;;15.40;9.13;;;20.70;99.90;;;;;;4858083;29;20197;-70
2023/08/26 09:50:04;;;;;;;11.98;8.90;;;20.90;99.90;;;;;;4858968;29;20198;-69
2023/08/26 09:52:39;;;;;;;14.57;8.80;;;21.00;99.90;;;;;;4859538;29;20611;-69
2023/08/26 09:55:06;;;;;;;12.30;8.70;;;21.20;99.90;;;;;;4855504;29;20197;-69
2023/08/26 09:57:32;;;;;;;10.20;8.20;;;21.40;99.90;;;;;;4859628;29;20204;-69
2023/08/26 09:59:58;;;;;;;20.42;8.95;;;21.60;99.90;;;;;;4857587;29;20563;-69
2023/08/26 10:02:25;;;;;;;11.75;8.07;;;21.70;99.90;;;;;;4857640;29;20194;-69
2023/08/26 10:04:55;;;;;;;12.45;7.90;;;21.80;99.90;;;;;;4859318;29;20196;-71
2023/08/26 10:07:27;;;;;;;10.15;6.68;;;22.00;99.90;;;;;;4858858;29;20642;-69
2023/08/26 10:10:18;;;;;;;13.65;7.68;;;22.20;99.90;;;;;;4850011;29;20219;-68
2023/08/26 10:12:47;;;;;;;11.85;7.38;;;22.20;99.90;;;;;;4855140;29;20190;-71
2023/08/26 10:15:17;;;;;;;13.52;8.23;;;22.30;99.90;;;;;;4853432;29;20189;-70
2023/08/26 10:17:49;;;;;;;12.90;6.88;;;22.20;99.90;;;;;;4854512;29;20182;-71
2023/08/26 10:20:15;;;;;;;13.43;6.70;;;22.00;99.90;;;;;;4858507;29;20698;-72
2023/08/26 10:22:41;;;;;;;8.52;6.47;;;21.80;99.90;;;;;;4855139;29;20266;-69
2023/08/26 10:25:09;;;;;;;9.27;4.68;;;21.40;99.90;;;;;;4858279;29;20282;-68
2023/08/26 10:27:36;;;;;;;7.53;3.30;;;20.90;99.90;;;;;;4854819;29;20194;-66
2023/08/26 10:30:05;;;;;;;4.30;2.70;;;20.00;99.90;;;;;;4853608;29;20194;-67
2023/08/26 10:32:31;;;;;;;7.15;2.42;;;18.90;99.90;;;;;;4853639;29;20198;-64
2023/08/26 10:34:58;;;;;;;7.32;2.78;;;17.80;99.90;;;;;;4853887;29;20248;-64
2023/08/26 10:37:28;;;;;;;7.68;2.85;;;17.10;99.90;;;;;;4855584;29;20201;-65
2023/08/26 10:39:55;;;;;;;7.00;2.70;;;16.60;99.90;;;;;;4869409;29;20679;-62
2023/08/26 10:42:22;;;;;;;6.85;3.00;;;16.20;99.90;;;;;;4855100;29;20837;-62
2023/08/26 10:44:54;;;;;;;6.15;3.58;;;16.00;99.90;;;;;;4857175;29;20583;-62
2023/08/26 10:47:40;;;;;;;8.23;2.80;;;15.70;99.90;;;;;;4852309;29;20663;-67
2023/08/26 10:50:21;;;;;;;5.45;2.47;;;15.70;99.90;;;;;;4853889;29;20200;-64
2023/08/26 10:53:14;;;;;;;5.53;2.65;;;15.60;99.90;;;;;;4854657;29;20198;-64
2023/08/26 10:55:41;;;;;;;3.88;2.90;;;15.60;99.90;;;;;;4853353;29;20213;-63
2023/08/26 10:58:08;;;;;;;8.40;3.70;;;15.70;99.90;;;;;;4856207;29;20222;-61
2023/08/26 11:00:35;;;;;;;5.07;3.20;;;15.90;99.90;;;;;;4860186;29;20194;-63
2023/08/26 11:03:03;;;;;;;4.47;2.83;;;16.00;99.90;;;;;;4870985;29;20194;-60
2023/08/26 11:05:29;;;;;;;3.83;2.90;;;16.20;99.90;;;;;;4855922;29;20262;-61
2023/08/26 11:07:56;;;;;;;4.35;2.13;;;16.30;99.90;;;;;;4860318;29;20412;-62
2023/08/26 11:10:27;;;;;;;3.92;2.40;;;16.50;99.90;;;;;;4857419;29;20198;-64
2023/08/26 11:12:54;;;;;;;5.88;2.35;;;16.60;99.90;;;;;;4857184;29;20254;-63
2023/08/26 11:15:20;;;;;;;6.10;3.05;;;16.60;99.90;;;;;;4857209;29;20643;-62
2023/08/26 11:17:48;;;;;;;6.32;2.90;;;16.60;99.90;;;;;;4857717;29;20194;-65
2023/08/26 11:20:18;;;;;;;6.25;3.05;;;16.70;99.90;;;;;;4873101;29;20202;-64
2023/08/26 11:22:45;;;;;;;7.85;3.88;;;16.80;99.90;;;;;;4849647;29;20234;-64
2023/08/26 11:25:17;;;;;;;9.77;4.13;;;16.90;99.90;;;;;;4861682;29;20225;-62
2023/08/26 11:27:43;;;;;;;7.13;4.63;;;16.90;99.90;;;;;;4856350;29;20190;-62
2023/08/26 11:30:11;;;;;;;8.30;4.88;;;17.00;99.90;;;;;;4859841;29;20198;-63
2023/08/26 11:32:38;;;;;;;9.27;5.15;;;17.00;99.90;;;;;;4857782;29;20202;-65
2023/08/26 11:35:05;;;;;;;8.93;5.72;;;17.30;99.90;;;;;;4858685;29;20190;-64
2023/08/26 11:37:42;;;;;;;9.00;6.00;;;17.50;99.90;;;;;;4857410;29;20229;-66
2023/08/26 11:40:09;;;;;;;9.80;6.70;;;17.70;99.90;;;;;;4853830;29;20200;-65
2023/08/26 11:42:35;;;;;;;11.45;6.60;;;17.80;99.90;;;;;;4868779;29;20224;-65
2023/08/26 11:45:02;;;;;;;13.73;7.63;;;18.00;99.90;;;;;;4860518;29;20201;-63
2023/08/26 11:47:28;;;;;;;11.05;7.00;;;18.10;99.90;;;;;;4858826;29;20190;-65
2023/08/26 11:49:55;;;;;;;14.57;7.35;;;18.20;99.90;;;;;;4855522;29;20186;-64
2023/08/26 11:52:41;;;;;;;11.10;6.95;;;18.40;99.90;;;;;;4860406;29;20206;-65
2023/08/26 11:55:09;;;;;;;10.05;7.82;;;18.60;99.90;;;;;;4861395;29;20242;-66
2023/08/26 11:57:38;;;;;;;13.02;7.95;;;18.70;99.90;;;;;;4859193;29;20190;-65
2023/08/26 12:00:11;;;;;;;18.50;8.73;;;18.80;99.90;;;;;;4856825;29;20194;-65
2023/08/26 12:02:52;;;;;;;16.05;9.57;;;18.80;99.90;;;;;;4856931;29;20214;-64
2023/08/26 12:05:19;;;;;;;13.95;8.98;;;18.90;99.90;;;;;;4859267;29;20214;-68
2023/08/26 12:07:50;;;;;;;18.08;9.88;;;18.90;99.90;;;;;;4862414;29;20690;-65
2023/08/26 12:10:20;;;;;;;11.48;7.95;;;19.00;99.90;;;;;;4858794;29;20659;-65
2023/08/26 12:12:48;;;;;;;13.50;7.85;;;19.00;99.90;;;;;;4859832;29;20667;-66
2023/08/26 12:15:16;;;;;;;13.00;8.35;;;19.10;99.90;;;;;;4859724;29;20221;-66
2023/08/26 12:17:54;;;;;;;11.23;8.52;;;19.10;99.90;;;;;;4857066;29;20213;-66
2023/08/26 12:20:21;;;;;;;13.10;8.23;;;19.10;99.90;;;;;;4856918;29;20706;-67
2023/08/26 12:22:48;;;;;;;17.33;8.88;;;19.20;99.90;;;;;;4858586;29;20233;-66
2023/08/26 12:25:39;;;;;;;13.55;8.43;;;19.40;99.90;;;;;;4859230;29;20243;-66
2023/08/26 12:28:17;;;;;;;11.40;7.88;;;19.70;99.90;;;;;;4848225;29;20213;-67
2023/08/26 12:30:48;;;;;;;10.73;5.97;;;19.90;99.90;;;;;;4855591;29;20203;-66
2023/08/26 12:33:14;;;;;;;6.78;4.85;;;20.10;99.90;;;;;;4856677;29;20194;-70
2023/08/26 12:35:40;;;;;;;6.90;3.55;;;20.30;99.90;;;;;;4857380;29;20662;-68
2023/08/26 12:38:07;;;;;;;5.05;3.50;;;20.50;99.90;;;;;;4859882;29;20205;-71